sensor_id;sensor_type;location;lat;lon;timestamp;pressure;altitude;pressure_sealevel;temperature;humidity
80424;BME280;69765;47.668;19.326;2023-06-04T00:00:05;99433.44;;;11.88;55.40
80424;BME280;69765;47.668;19.326;2023-06-04T00:03:10;99433.13;;;11.96;55.21
80424;BME280;69765;47.668;19.326;2023-06-04T00:06:13;99428.38;;;12.02;55.61
80424;BME280;69765;47.668;19.326;2023-06-04T00:09:15;99417.91;;;11.99;56.41
80424;BME280;69765;47.668;19.326;2023-06-04T00:12:17;99427.41;;;11.87;55.49
80424;BME280;69765;47.668;19.326;2023-06-04T00:15:20;99427.31;;;11.99;54.92
80424;BME280;69765;47.668;19.326;2023-06-04T00:18:22;99427.88;;;12.08;53.79
80424;BME280;69765;47.668;19.326;2023-06-04T00:21:25;99419.22;;;12.06;54.20
80424;BME280;69765;47.668;19.326;2023-06-04T00:24:27;99425.91;;;12.04;54.36
80424;BME280;69765;47.668;19.326;2023-06-04T00:27:30;99416.72;;;11.94;54.45
80424;BME280;69765;47.668;19.326;2023-06-04T00:30:32;99422.56;;;11.92;54.31
80424;BME280;69765;47.668;19.326;2023-06-04T00:33:34;99425.06;;;11.90;54.57
80424;BME280;69765;47.668;19.326;2023-06-04T00:36:37;99424.78;;;11.74;55.44
80424;BME280;69765;47.668;19.326;2023-06-04T00:39:39;99423.16;;;11.88;54.69
80424;BME280;69765;47.668;19.326;2023-06-04T00:42:42;99422.19;;;11.86;54.84
80424;BME280;69765;47.668;19.326;2023-06-04T00:45:46;99422.06;;;11.97;53.95
80424;BME280;69765;47.668;19.326;2023-06-04T00:48:49;99424.66;;;11.97;54.08
80424;BME280;69765;47.668;19.326;2023-06-04T00:51:51;99415.47;;;12.01;53.91
80424;BME280;69765;47.668;19.326;2023-06-04T00:54:54;99418.22;;;12.17;53.59
80424;BME280;69765;47.668;19.326;2023-06-04T00:57:57;99419.50;;;12.24;53.25
80424;BME280;69765;47.668;19.326;2023-06-04T01:01:00;99404.69;;;12.20;54.38
80424;BME280;69765;47.668;19.326;2023-06-04T01:04:14;99400.06;;;12.01;54.04
80424;BME280;69765;47.668;19.326;2023-06-04T01:07:19;99392.06;;;11.96;55.83
80424;BME280;69765;47.668;19.326;2023-06-04T01:10:21;99387.81;;;11.97;55.92
80424;BME280;69765;47.668;19.326;2023-06-04T01:13:24;99379.72;;;11.91;58.05
80424;BME280;69765;47.668;19.326;2023-06-04T01:16:30;99388.38;;;11.80;56.62
80424;BME280;69765;47.668;19.326;2023-06-04T01:20:01;99387.59;;;11.67;56.10
80424;BME280;69765;47.668;19.326;2023-06-04T01:26:38;99397.16;;;11.70;55.33
80424;BME280;69765;47.668;19.326;2023-06-04T01:29:40;99395.16;;;11.66;54.97
80424;BME280;69765;47.668;19.326;2023-06-04T01:32:44;99388.66;;;11.71;54.53
80424;BME280;69765;47.668;19.326;2023-06-04T01:35:49;99399.03;;;11.72;54.75
80424;BME280;69765;47.668;19.326;2023-06-04T01:38:51;99395.81;;;11.88;54.70
80424;BME280;69765;47.668;19.326;2023-06-04T01:41:54;99401.53;;;11.84;55.06
80424;BME280;69765;47.668;19.326;2023-06-04T01:44:56;99406.94;;;11.62;55.39
80424;BME280;69765;47.668;19.326;2023-06-04T01:48:01;99406.91;;;11.49;56.21
80424;BME280;69765;47.668;19.326;2023-06-04T01:51:04;99399.59;;;11.42;55.75
80424;BME280;69765;47.668;19.326;2023-06-04T01:54:08;99409.00;;;11.55;58.10
80424;BME280;69765;47.668;19.326;2023-06-04T01:57:10;99405.97;;;11.22;59.90
80424;BME280;69765;47.668;19.326;2023-06-04T02:00:13;99416.69;;;11.16;60.64
80424;BME280;69765;47.668;19.326;2023-06-04T02:03:17;99412.78;;;10.96;62.34
80424;BME280;69765;47.668;19.326;2023-06-04T02:06:20;99417.41;;;10.77;63.68
80424;BME280;69765;47.668;19.326;2023-06-04T02:09:22;99420.50;;;10.60;64.58
80424;BME280;69765;47.668;19.326;2023-06-04T02:12:25;99420.03;;;10.54;63.82
80424;BME280;69765;47.668;19.326;2023-06-04T02:15:29;99424.22;;;10.40;61.05
80424;BME280;69765;47.668;19.326;2023-06-04T02:18:32;99433.91;;;10.32;61.08
80424;BME280;69765;47.668;19.326;2023-06-04T02:21:34;99424.00;;;10.25;61.45
80424;BME280;69765;47.668;19.326;2023-06-04T02:24:38;99420.97;;;10.42;63.50
80424;BME280;69765;47.668;19.326;2023-06-04T02:27:42;99429.06;;;10.60;62.10
80424;BME280;69765;47.668;19.326;2023-06-04T02:30:44;99427.16;;;10.69;61.49
80424;BME280;69765;47.668;19.326;2023-06-04T02:33:48;99425.69;;;10.73;63.34
80424;BME280;69765;47.668;19.326;2023-06-04T02:36:50;99423.06;;;10.48;64.13
80424;BME280;69765;47.668;19.326;2023-06-04T02:39:52;99418.47;;;10.31;63.44
80424;BME280;69765;47.668;19.326;2023-06-04T02:42:56;99434.66;;;10.43;64.49
80424;BME280;69765;47.668;19.326;2023-06-04T02:45:58;99420.88;;;10.41;64.00
80424;BME280;69765;47.668;19.326;2023-06-04T02:49:00;99425.69;;;10.13;64.53
80424;BME280;69765;47.668;19.326;2023-06-04T02:52:03;99434.38;;;10.03;62.81
80424;BME280;69765;47.668;19.326;2023-06-04T02:55:07;99428.91;;;9.98;62.71
80424;BME280;69765;47.668;19.326;2023-06-04T02:58:10;99430.25;;;10.17;61.87
80424;BME280;69765;47.668;19.326;2023-06-04T03:01:17;99429.59;;;10.31;60.98
80424;BME280;69765;47.668;19.326;2023-06-04T03:04:21;99428.09;;;10.35;61.36
80424;BME280;69765;47.668;19.326;2023-06-04T03:07:23;99427.44;;;10.37;61.53
80424;BME280;69765;47.668;19.326;2023-06-04T03:10:26;99437.97;;;10.54;61.50
80424;BME280;69765;47.668;19.326;2023-06-04T03:13:28;99435.97;;;10.61;61.25
80424;BME280;69765;47.668;19.326;2023-06-04T03:16:30;99439.56;;;10.88;60.16
80424;BME280;69765;47.668;19.326;2023-06-04T03:19:35;99431.94;;;11.02;58.83
80424;BME280;69765;47.668;19.326;2023-06-04T03:22:37;99434.75;;;11.18;58.85
80424;BME280;69765;47.668;19.326;2023-06-04T03:25:40;99437.88;;;11.52;57.54
80424;BME280;69765;47.668;19.326;2023-06-04T03:28:43;99437.03;;;11.65;58.82
80424;BME280;69765;47.668;19.326;2023-06-04T03:31:48;99433.19;;;11.58;61.53
80424;BME280;69765;47.668;19.326;2023-06-04T03:34:51;99436.00;;;11.49;64.63
80424;BME280;69765;47.668;19.326;2023-06-04T03:37:53;99442.63;;;11.46;63.39
80424;BME280;69765;47.668;19.326;2023-06-04T03:40:55;99444.56;;;11.37;63.46
80424;BME280;69765;47.668;19.326;2023-06-04T03:43:58;99445.25;;;11.34;63.96
80424;BME280;69765;47.668;19.326;2023-06-04T03:47:02;99442.69;;;11.34;64.68
80424;BME280;69765;47.668;19.326;2023-06-04T03:50:06;99438.19;;;11.43;65.56
80424;BME280;69765;47.668;19.326;2023-06-04T03:53:08;99446.59;;;11.54;65.90
80424;BME280;69765;47.668;19.326;2023-06-04T03:56:11;99445.25;;;11.72;66.51
80424;BME280;69765;47.668;19.326;2023-06-04T03:59:14;99442.22;;;11.91;66.12
80424;BME280;69765;47.668;19.326;2023-06-04T04:02:16;99458.72;;;12.21;65.41
80424;BME280;69765;47.668;19.326;2023-06-04T04:05:22;99456.72;;;12.44;63.10
80424;BME280;69765;47.668;19.326;2023-06-04T04:08:25;99448.78;;;12.54;64.46
80424;BME280;69765;47.668;19.326;2023-06-04T04:11:33;99455.59;;;12.67;64.07
80424;BME280;69765;47.668;19.326;2023-06-04T04:14:36;99453.31;;;12.71;64.02
80424;BME280;69765;47.668;19.326;2023-06-04T04:17:39;99457.06;;;12.76;66.00
80424;BME280;69765;47.668;19.326;2023-06-04T04:20:42;99449.94;;;12.72;66.22
80424;BME280;69765;47.668;19.326;2023-06-04T04:23:45;99453.00;;;12.80;68.33
80424;BME280;69765;47.668;19.326;2023-06-04T04:26:48;99450.59;;;12.83;67.45
80424;BME280;69765;47.668;19.326;2023-06-04T04:29:50;99440.88;;;12.92;67.80
80424;BME280;69765;47.668;19.326;2023-06-04T04:32:53;99459.38;;;13.15;68.68
80424;BME280;69765;47.668;19.326;2023-06-04T04:36:02;99462.28;;;13.34;65.27
80424;BME280;69765;47.668;19.326;2023-06-04T04:39:04;99452.22;;;13.52;68.82
80424;BME280;69765;47.668;19.326;2023-06-04T04:42:09;99455.59;;;13.66;65.12
80424;BME280;69765;47.668;19.326;2023-06-04T04:45:12;99459.94;;;13.67;66.03
80424;BME280;69765;47.668;19.326;2023-06-04T04:48:15;99459.78;;;13.78;65.48
80424;BME280;69765;47.668;19.326;2023-06-04T04:51:17;99468.63;;;13.98;63.38
80424;BME280;69765;47.668;19.326;2023-06-04T04:54:20;99476.59;;;14.18;62.26
80424;BME280;69765;47.668;19.326;2023-06-04T04:57:22;99472.50;;;14.36;57.47
80424;BME280;69765;47.668;19.326;2023-06-04T05:00:27;99482.78;;;14.51;52.39
80424;BME280;69765;47.668;19.326;2023-06-04T05:03:31;99491.94;;;14.77;51.85
80424;BME280;69765;47.668;19.326;2023-06-04T05:06:34;99489.16;;;14.89;52.21
80424;BME280;69765;47.668;19.326;2023-06-04T05:09:36;99488.66;;;14.96;50.96
80424;BME280;69765;47.668;19.326;2023-06-04T05:12:38;99480.63;;;15.39;52.13
80424;BME280;69765;47.668;19.326;2023-06-04T05:15:43;99471.94;;;15.87;48.95
80424;BME280;69765;47.668;19.326;2023-06-04T05:18:48;99469.47;;;16.42;47.72
80424;BME280;69765;47.668;19.326;2023-06-04T05:21:56;99479.13;;;17.01;46.93
80424;BME280;69765;47.668;19.326;2023-06-04T05:24:59;99469.00;;;17.66;42.18
80424;BME280;69765;47.668;19.326;2023-06-04T05:28:02;99463.66;;;18.24;40.83
80424;BME280;69765;47.668;19.326;2023-06-04T05:31:05;99458.94;;;19.02;40.45
80424;BME280;69765;47.668;19.326;2023-06-04T05:34:11;99471.31;;;18.42;37.65
80424;BME280;69765;47.668;19.326;2023-06-04T05:37:19;99474.06;;;18.03;40.36
80424;BME280;69765;47.668;19.326;2023-06-04T05:40:22;99482.41;;;17.96;42.32
80424;BME280;69765;47.668;19.326;2023-06-04T05:43:25;99485.28;;;17.82;42.39
80424;BME280;69765;47.668;19.326;2023-06-04T05:46:28;99496.44;;;17.80;42.34
80424;BME280;69765;47.668;19.326;2023-06-04T05:49:33;99491.16;;;17.78;44.98
80424;BME280;69765;47.668;19.326;2023-06-04T05:52:36;99485.47;;;18.29;43.80
80424;BME280;69765;47.668;19.326;2023-06-04T05:55:43;99489.47;;;18.42;42.21
80424;BME280;69765;47.668;19.326;2023-06-04T05:58:51;99486.44;;;18.10;43.37
80424;BME280;69765;47.668;19.326;2023-06-04T06:01:54;99492.31;;;18.69;45.50
80424;BME280;69765;47.668;19.326;2023-06-04T06:04:57;99489.66;;;20.93;38.36
80424;BME280;69765;47.668;19.326;2023-06-04T06:07:59;99489.31;;;21.40;36.34
80424;BME280;69765;47.668;19.326;2023-06-04T06:11:01;99486.97;;;22.14;34.02
80424;BME280;69765;47.668;19.326;2023-06-04T06:14:11;99487.06;;;22.18;31.66
80424;BME280;69765;47.668;19.326;2023-06-04T06:17:13;99477.72;;;22.27;32.52
80424;BME280;69765;47.668;19.326;2023-06-04T06:20:17;99493.03;;;22.49;33.01
80424;BME280;69765;47.668;19.326;2023-06-04T06:23:21;99499.25;;;21.23;33.70
80424;BME280;69765;47.668;19.326;2023-06-04T06:26:26;99497.59;;;20.68;35.40
80424;BME280;69765;47.668;19.326;2023-06-04T06:29:31;99496.09;;;21.33;33.91
80424;BME280;69765;47.668;19.326;2023-06-04T06:32:34;99495.44;;;21.74;33.84
80424;BME280;69765;47.668;19.326;2023-06-04T06:35:37;99487.31;;;22.29;34.28
80424;BME280;69765;47.668;19.326;2023-06-04T06:38:40;99501.22;;;22.28;34.06
80424;BME280;69765;47.668;19.326;2023-06-04T06:41:42;99495.81;;;22.20;35.83
80424;BME280;69765;47.668;19.326;2023-06-04T06:44:48;99500.50;;;22.01;33.51
80424;BME280;69765;47.668;19.326;2023-06-04T06:47:51;99498.09;;;22.43;33.61
80424;BME280;69765;47.668;19.326;2023-06-04T06:50:54;99488.59;;;22.83;31.73
80424;BME280;69765;47.668;19.326;2023-06-04T06:53:56;99491.19;;;23.66;30.93
80424;BME280;69765;47.668;19.326;2023-06-04T06:56:59;99489.06;;;23.92;30.29
80424;BME280;69765;47.668;19.326;2023-06-04T07:00:01;99490.81;;;24.43;29.86
80424;BME280;69765;47.668;19.326;2023-06-04T07:03:04;99491.28;;;24.73;28.34
80424;BME280;69765;47.668;19.326;2023-06-04T07:06:06;99500.53;;;25.09;28.25
80424;BME280;69765;47.668;19.326;2023-06-04T07:09:09;99502.59;;;25.33;27.69
80424;BME280;69765;47.668;19.326;2023-06-04T07:12:11;99503.88;;;25.01;28.02
80424;BME280;69765;47.668;19.326;2023-06-04T07:15:14;99504.84;;;25.76;28.07
80424;BME280;69765;47.668;19.326;2023-06-04T07:18:16;99504.63;;;25.59;27.36
80424;BME280;69765;47.668;19.326;2023-06-04T07:21:19;99505.47;;;25.56;27.35
80424;BME280;69765;47.668;19.326;2023-06-04T07:24:22;99509.13;;;24.99;28.75
80424;BME280;69765;47.668;19.326;2023-06-04T07:27:24;99503.25;;;24.56;27.83
80424;BME280;69765;47.668;19.326;2023-06-04T07:30:28;99505.66;;;23.94;26.75
80424;BME280;69765;47.668;19.326;2023-06-04T07:33:30;99502.91;;;23.41;30.60
80424;BME280;69765;47.668;19.326;2023-06-04T07:36:33;99507.66;;;22.80;32.26
80424;BME280;69765;47.668;19.326;2023-06-04T07:39:36;99511.25;;;22.48;35.17
80424;BME280;69765;47.668;19.326;2023-06-04T12:51:36;99521.13;;;26.32;30.16
80424;BME280;69765;47.668;19.326;2023-06-04T12:54:41;99517.28;;;25.96;30.25
80424;BME280;69765;47.668;19.326;2023-06-04T12:57:45;99518.09;;;25.88;32.02
80424;BME280;69765;47.668;19.326;2023-06-04T13:00:48;99519.88;;;25.92;30.86
80424;BME280;69765;47.668;19.326;2023-06-04T13:03:50;99516.13;;;25.70;32.00
80424;BME280;69765;47.668;19.326;2023-06-04T13:06:53;99524.41;;;25.31;30.33
80424;BME280;69765;47.668;19.326;2023-06-04T13:10:00;99507.25;;;25.59;30.77
80424;BME280;69765;47.668;19.326;2023-06-04T13:13:03;99514.63;;;25.90;31.25
80424;BME280;69765;47.668;19.326;2023-06-04T13:16:05;99511.38;;;26.17;30.08
80424;BME280;69765;47.668;19.326;2023-06-04T13:19:08;99504.31;;;26.13;30.44
80424;BME280;69765;47.668;19.326;2023-06-04T13:54:53;99498.03;;;24.05;32.16
80424;BME280;69765;47.668;19.326;2023-06-04T13:57:56;99499.72;;;24.56;32.16
80424;BME280;69765;47.668;19.326;2023-06-04T14:00:58;99486.84;;;24.15;31.34
80424;BME280;69765;47.668;19.326;2023-06-04T14:04:01;99500.66;;;24.58;31.52
80424;BME280;69765;47.668;19.326;2023-06-04T14:07:07;99501.53;;;24.58;33.67
80424;BME280;69765;47.668;19.326;2023-06-04T14:10:11;99489.31;;;24.06;32.89
80424;BME280;69765;47.668;19.326;2023-06-04T14:13:13;99494.94;;;23.79;34.29
80424;BME280;69765;47.668;19.326;2023-06-04T14:16:15;99492.63;;;23.95;34.80
80424;BME280;69765;47.668;19.326;2023-06-04T14:19:18;99489.31;;;24.06;34.59
80424;BME280;69765;47.668;19.326;2023-06-04T14:22:20;99494.47;;;24.03;36.86
80424;BME280;69765;47.668;19.326;2023-06-04T14:25:23;99497.44;;;23.73;33.87
80424;BME280;69765;47.668;19.326;2023-06-04T14:28:25;99485.63;;;23.49;36.54
80424;BME280;69765;47.668;19.326;2023-06-04T14:31:28;99488.00;;;23.37;36.13
80424;BME280;69765;47.668;19.326;2023-06-04T14:34:30;99482.06;;;23.45;36.76
80424;BME280;69765;47.668;19.326;2023-06-04T14:37:34;99486.59;;;23.54;34.44
80424;BME280;69765;47.668;19.326;2023-06-04T14:40:36;99485.47;;;23.41;37.69
80424;BME280;69765;47.668;19.326;2023-06-04T14:43:40;99488.06;;;23.40;37.49
80424;BME280;69765;47.668;19.326;2023-06-04T14:46:42;99488.75;;;23.30;37.41
80424;BME280;69765;47.668;19.326;2023-06-04T14:49:45;99489.63;;;23.30;37.47
80424;BME280;69765;47.668;19.326;2023-06-04T14:52:47;99488.06;;;23.40;37.29
80424;BME280;69765;47.668;19.326;2023-06-04T14:55:49;99481.00;;;23.36;38.36
80424;BME280;69765;47.668;19.326;2023-06-04T14:58:52;99489.47;;;23.24;35.18
80424;BME280;69765;47.668;19.326;2023-06-04T15:01:54;99479.88;;;23.23;34.37
80424;BME280;69765;47.668;19.326;2023-06-04T15:04:57;99483.59;;;23.34;35.24
80424;BME280;69765;47.668;19.326;2023-06-04T15:07:59;99480.34;;;23.04;35.65
80424;BME280;69765;47.668;19.326;2023-06-04T15:11:02;99486.66;;;23.13;36.03
80424;BME280;69765;47.668;19.326;2023-06-04T15:14:05;99479.84;;;23.20;36.67
80424;BME280;69765;47.668;19.326;2023-06-04T15:17:07;99479.28;;;23.36;36.31
80424;BME280;69765;47.668;19.326;2023-06-04T15:20:10;99467.72;;;23.25;37.37
80424;BME280;69765;47.668;19.326;2023-06-04T15:23:13;99470.06;;;23.11;38.10
80424;BME280;69765;47.668;19.326;2023-06-04T15:26:16;99465.16;;;22.87;39.80
80424;BME280;69765;47.668;19.326;2023-06-04T15:29:19;99459.78;;;22.80;41.03
80424;BME280;69765;47.668;19.326;2023-06-04T15:32:24;99452.38;;;23.00;39.17
80424;BME280;69765;47.668;19.326;2023-06-04T15:35:27;99452.66;;;23.12;39.92
80424;BME280;69765;47.668;19.326;2023-06-04T15:38:29;99451.72;;;23.10;40.05
80424;BME280;69765;47.668;19.326;2023-06-04T15:41:33;99444.81;;;22.73;40.27
80424;BME280;69765;47.668;19.326;2023-06-04T15:44:36;99457.59;;;22.59;41.54
80424;BME280;69765;47.668;19.326;2023-06-04T15:47:38;99453.56;;;22.35;43.37
80424;BME280;69765;47.668;19.326;2023-06-04T15:50:41;99458.38;;;22.20;44.90
80424;BME280;69765;47.668;19.326;2023-06-04T15:53:44;99455.63;;;22.12;42.96
80424;BME280;69765;47.668;19.326;2023-06-04T15:56:47;99461.00;;;21.87;42.15
80424;BME280;69765;47.668;19.326;2023-06-04T15:59:50;99461.75;;;21.81;42.19
80424;BME280;69765;47.668;19.326;2023-06-04T16:02:52;99466.88;;;21.78;42.88
80424;BME280;69765;47.668;19.326;2023-06-04T16:05:55;99457.13;;;21.71;43.91
80424;BME280;69765;47.668;19.326;2023-06-04T16:08:57;99462.47;;;21.42;45.94
80424;BME280;69765;47.668;19.326;2023-06-04T16:11:59;99462.81;;;21.26;45.65
80424;BME280;69765;47.668;19.326;2023-06-04T16:15:02;99452.41;;;21.26;46.28
80424;BME280;69765;47.668;19.326;2023-06-04T16:18:04;99455.31;;;21.05;46.83
80424;BME280;69765;47.668;19.326;2023-06-04T16:21:07;99464.81;;;21.03;47.86
80424;BME280;69765;47.668;19.326;2023-06-04T16:24:09;99450.25;;;21.11;48.39
80424;BME280;69765;47.668;19.326;2023-06-04T16:27:12;99457.59;;;20.95;48.99
80424;BME280;69765;47.668;19.326;2023-06-04T16:30:15;99455.47;;;20.81;48.76
80424;BME280;69765;47.668;19.326;2023-06-04T16:33:17;99453.03;;;20.87;49.40
80424;BME280;69765;47.668;19.326;2023-06-04T16:36:20;99459.47;;;20.99;48.73
80424;BME280;69765;47.668;19.326;2023-06-04T16:39:23;99451.91;;;21.08;48.32
80424;BME280;69765;47.668;19.326;2023-06-04T16:42:25;99452.59;;;21.02;48.75
80424;BME280;69765;47.668;19.326;2023-06-04T16:45:28;99441.03;;;20.92;50.36
80424;BME280;69765;47.668;19.326;2023-06-04T16:48:30;99458.81;;;20.77;51.24
80424;BME280;69765;47.668;19.326;2023-06-04T16:51:33;99464.19;;;20.55;53.16
80424;BME280;69765;47.668;19.326;2023-06-04T16:54:35;99463.84;;;20.44;52.86
80424;BME280;69765;47.668;19.326;2023-06-04T16:57:40;99459.56;;;20.46;52.81
80424;BME280;69765;47.668;19.326;2023-06-04T17:00:47;99454.34;;;20.46;52.78
80424;BME280;69765;47.668;19.326;2023-06-04T17:03:50;99455.34;;;20.48;52.96
80424;BME280;69765;47.668;19.326;2023-06-04T17:06:54;99449.94;;;20.43;52.82
80424;BME280;69765;47.668;19.326;2023-06-04T17:09:58;99445.13;;;20.56;52.61
80424;BME280;69765;47.668;19.326;2023-06-04T17:13:01;99449.59;;;20.60;52.79
80424;BME280;69765;47.668;19.326;2023-06-04T17:16:03;99444.25;;;20.55;52.99
80424;BME280;69765;47.668;19.326;2023-06-04T17:19:06;99444.75;;;20.43;52.65
80424;BME280;69765;47.668;19.326;2023-06-04T17:22:08;99446.22;;;20.35;52.92
80424;BME280;69765;47.668;19.326;2023-06-04T17:25:10;99446.19;;;20.34;52.71
80424;BME280;69765;47.668;19.326;2023-06-04T17:28:13;99442.72;;;20.35;52.31
80424;BME280;69765;47.668;19.326;2023-06-04T17:31:16;99451.94;;;20.24;52.81
80424;BME280;69765;47.668;19.326;2023-06-04T17:34:20;99452.81;;;20.24;52.48
80424;BME280;69765;47.668;19.326;2023-06-04T17:37:22;99456.25;;;20.23;51.83
80424;BME280;69765;47.668;19.326;2023-06-04T17:40:26;99452.97;;;20.29;51.52
80424;BME280;69765;47.668;19.326;2023-06-04T17:43:28;99452.22;;;20.33;51.24
80424;BME280;69765;47.668;19.326;2023-06-04T17:46:31;99451.53;;;20.38;50.75
80424;BME280;69765;47.668;19.326;2023-06-04T17:49:34;99452.25;;;20.34;50.79
80424;BME280;69765;47.668;19.326;2023-06-04T17:52:37;99458.22;;;20.32;50.98
80424;BME280;69765;47.668;19.326;2023-06-04T17:55:42;99454.88;;;20.34;50.50
80424;BME280;69765;47.668;19.326;2023-06-04T17:58:45;99458.22;;;20.32;51.00
80424;BME280;69765;47.668;19.326;2023-06-04T18:01:47;99457.28;;;20.28;51.55
80424;BME280;69765;47.668;19.326;2023-06-04T18:04:50;99458.97;;;20.28;52.78
80424;BME280;69765;47.668;19.326;2023-06-04T18:07:53;99454.16;;;20.13;52.22
80424;BME280;69765;47.668;19.326;2023-06-04T18:10:56;99458.47;;;20.12;51.99
80424;BME280;69765;47.668;19.326;2023-06-04T18:13:58;99456.63;;;20.08;52.47
80424;BME280;69765;47.668;19.326;2023-06-04T18:17:02;99467.00;;;20.08;53.04
80424;BME280;69765;47.668;19.326;2023-06-04T18:20:05;99458.97;;;20.01;54.62
80424;BME280;69765;47.668;19.326;2023-06-04T18:23:08;99461.84;;;19.83;55.15
80424;BME280;69765;47.668;19.326;2023-06-04T18:26:14;99458.72;;;19.68;55.87
80424;BME280;69765;47.668;19.326;2023-06-04T18:29:16;99463.69;;;19.61;55.49
80424;BME280;69765;47.668;19.326;2023-06-04T18:32:21;99463.81;;;19.40;57.09
80424;BME280;69765;47.668;19.326;2023-06-04T18:35:24;99460.88;;;19.31;57.14
80424;BME280;69765;47.668;19.326;2023-06-04T18:38:27;99460.84;;;19.30;57.10
80424;BME280;69765;47.668;19.326;2023-06-04T18:41:29;99471.44;;;19.36;57.29
80424;BME280;69765;47.668;19.326;2023-06-04T18:44:32;99467.13;;;19.36;56.41
80424;BME280;69765;47.668;19.326;2023-06-04T18:47:34;99475.91;;;19.40;55.27
80424;BME280;69765;47.668;19.326;2023-06-04T18:50:40;99477.81;;;19.44;55.57
80424;BME280;69765;47.668;19.326;2023-06-04T18:53:44;99487.91;;;19.36;56.75
80424;BME280;69765;47.668;19.326;2023-06-04T18:56:46;99485.94;;;19.29;56.61
80424;BME280;69765;47.668;19.326;2023-06-04T18:59:49;99487.75;;;19.32;55.73
80424;BME280;69765;47.668;19.326;2023-06-04T19:02:52;99484.59;;;19.40;53.82
80424;BME280;69765;47.668;19.326;2023-06-04T19:05:54;99488.06;;;19.41;53.37
80424;BME280;69765;47.668;19.326;2023-06-04T19:08:57;99503.72;;;19.42;54.69
80424;BME280;69765;47.668;19.326;2023-06-04T19:11:59;99507.69;;;19.33;56.82
80424;BME280;69765;47.668;19.326;2023-06-04T19:15:02;99504.84;;;19.25;56.14
80424;BME280;69765;47.668;19.326;2023-06-04T19:18:04;99504.53;;;19.18;56.27
80424;BME280;69765;47.668;19.326;2023-06-04T19:21:07;99504.00;;;19.04;55.97
80424;BME280;69765;47.668;19.326;2023-06-04T19:24:09;99506.03;;;18.88;55.57
80424;BME280;69765;47.668;19.326;2023-06-04T19:27:14;99506.91;;;18.89;55.33
80424;BME280;69765;47.668;19.326;2023-06-04T19:30:20;99501.78;;;18.90;56.08
80424;BME280;69765;47.668;19.326;2023-06-04T19:33:26;99502.16;;;18.77;53.51
80424;BME280;69765;47.668;19.326;2023-06-04T19:36:29;99502.44;;;18.85;54.75
80424;BME280;69765;47.668;19.326;2023-06-04T19:39:31;99503.31;;;18.85;55.15
80424;BME280;69765;47.668;19.326;2023-06-04T19:42:34;99510.00;;;18.79;56.37
80424;BME280;69765;47.668;19.326;2023-06-04T19:45:37;99506.53;;;18.78;53.29
80424;BME280;69765;47.668;19.326;2023-06-04T19:48:39;99503.56;;;18.69;54.41
80424;BME280;69765;47.668;19.326;2023-06-04T19:51:42;99511.44;;;18.72;53.73
80424;BME280;69765;47.668;19.326;2023-06-04T19:54:44;99509.81;;;18.74;53.05
80424;BME280;69765;47.668;19.326;2023-06-04T19:57:46;99503.94;;;18.78;52.09
80424;BME280;69765;47.668;19.326;2023-06-04T20:00:51;99496.84;;;18.74;54.25
80424;BME280;69765;47.668;19.326;2023-06-04T20:03:56;99502.72;;;18.70;53.29
80424;BME280;69765;47.668;19.326;2023-06-04T20:06:58;99508.34;;;18.81;52.03
80424;BME280;69765;47.668;19.326;2023-06-04T20:10:02;99504.44;;;18.70;54.67
80424;BME280;69765;47.668;19.326;2023-06-04T20:13:04;99497.09;;;18.59;54.64
80424;BME280;69765;47.668;19.326;2023-06-04T20:16:06;99506.28;;;18.51;55.23
80424;BME280;69765;47.668;19.326;2023-06-04T20:19:09;99492.69;;;18.36;55.07
80424;BME280;69765;47.668;19.326;2023-06-04T20:22:11;99506.31;;;18.30;54.64
80424;BME280;69765;47.668;19.326;2023-06-04T20:25:14;99496.63;;;18.26;55.40
80424;BME280;69765;47.668;19.326;2023-06-04T20:28:17;99497.16;;;18.18;56.80
80424;BME280;69765;47.668;19.326;2023-06-04T20:31:19;99501.56;;;18.20;54.81
80424;BME280;69765;47.668;19.326;2023-06-04T20:34:24;99492.88;;;18.20;54.51
80424;BME280;69765;47.668;19.326;2023-06-04T20:37:27;99493.78;;;18.20;54.00
80424;BME280;69765;47.668;19.326;2023-06-04T20:40:29;99495.09;;;18.10;55.69
80424;BME280;69765;47.668;19.326;2023-06-04T20:43:48;99489.63;;;18.03;55.17
80424;BME280;69765;47.668;19.326;2023-06-04T20:46:50;99488.94;;;18.07;56.76
80424;BME280;69765;47.668;19.326;2023-06-04T20:49:53;99493.53;;;18.14;55.60
80424;BME280;69765;47.668;19.326;2023-06-04T20:52:55;99492.06;;;18.00;54.91
80424;BME280;69765;47.668;19.326;2023-06-04T20:55:58;99491.25;;;18.01;55.07
80424;BME280;69765;47.668;19.326;2023-06-04T20:59:00;99485.13;;;17.99;56.67
80424;BME280;69765;47.668;19.326;2023-06-04T21:02:03;99491.19;;;17.99;55.27
80424;BME280;69765;47.668;19.326;2023-06-04T21:05:06;99498.84;;;17.96;57.02
80424;BME280;69765;47.668;19.326;2023-06-04T21:08:08;99491.94;;;17.97;56.16
80424;BME280;69765;47.668;19.326;2023-06-04T21:11:11;99490.06;;;17.93;57.79
80424;BME280;69765;47.668;19.326;2023-06-04T21:14:13;99490.09;;;17.73;58.08
80424;BME280;69765;47.668;19.326;2023-06-04T21:17:15;99487.25;;;17.69;58.66
80424;BME280;69765;47.668;19.326;2023-06-04T21:20:18;99488.22;;;17.71;58.26
80424;BME280;69765;47.668;19.326;2023-06-04T21:23:20;99497.06;;;17.74;57.33
80424;BME280;69765;47.668;19.326;2023-06-04T21:26:23;99489.34;;;17.76;57.67
80424;BME280;69765;47.668;19.326;2023-06-04T21:29:25;99496.44;;;17.80;56.03
80424;BME280;69765;47.668;19.326;2023-06-04T21:32:28;99496.69;;;17.86;56.13
80424;BME280;69765;47.668;19.326;2023-06-04T21:35:30;99498.78;;;17.95;55.41
80424;BME280;69765;47.668;19.326;2023-06-04T21:38:32;99504.59;;;17.89;56.82
80424;BME280;69765;47.668;19.326;2023-06-04T21:41:35;99494.28;;;17.91;55.87